Echo Bay, Ontario

9:13 AM EDT on August 05, 2015 (GMT -0400)
IONTARIO287 | | Change Station
CLOSE
Current Station
Personal Weather Station
Location: Bar River, Ontario
Elevation: 748 ft
Nearby Weather Stations

Elev 748 ft 46.44 °N, 84.01 °W | Updated 1 minute ago

Scattered Clouds
Scattered Clouds
59.0 °F
Feels Like 59.0 °F
N
4.0
Wind Variable Wind from NNW

Today is forecast to be nearly the same temperature as yesterday.

Today
High -- | Low -- °F
--% Chance of Precip.
Yesterday
High -- | Low -- °F
Precip. -- in
6:21 AM 9:01 PM
Waning Gibbous, 67% visible
Pressure 30.05 in
Visibility 15.0 miles
Clouds Few 1100 ft
Scattered Clouds 1300 ft
Scattered Clouds 23000 ft
Dew Point 57 °F
Humidity 93%
Rainfall 0.00 in
Snow Depth Not available.
UV 2 out of 12
Pollen Not available.
Air Quality Not available.
Flu Activity Not available.
METAR CYAM 051300Z 31011KT 15SM FEW011 SCT013 SCT230 15/12 A3004 RMK SF2CU1CI1 AC TR SLP176

More Conditions Fewer Conditions

Pressure 30.05 in
Visibility 15.0 miles
Clouds Few 1100 ft
Scattered Clouds 1300 ft
Scattered Clouds 23000 ft
Dew Point 57 °F
Humidity 93%
Rainfall 0.00 in
Snow Depth Not available.
UV 2 out of 12
Pollen Not available.
Air Quality Not available.
Flu Activity Not available.
METAR CYAM 051300Z 31011KT 15SM FEW011 SCT013 SCT230 15/12 A3004 RMK SF2CU1CI1 AC TR SLP176

More Conditions Fewer Conditions

10-Day Weather Forecast

×

Almanac

Astronomy

Aug. 05, 2015 Rise Set
Actual Time
Civil Twilight
Nautical Twilight
Astronomical Twilight
Moon
Length of Visible Light
Length of Day
Tomorrow will be .
, % of the Moon is Illuminated

Today's Extremes

Country Highs Country Lows

Community

WunderPhotos

Upload Photos

1,844,180 photos uploaded!

WunderBlogs® & News

Nearby

Air Quality

  Air Quality AQ Index Pollutant
Not available.

Snow Depth

Station Depth Elevation

Earthquake Activity

City Distance Mag. Time & Date
Minimum magnitude displayed is 2.5.

Coastal Water Temperatures

Place Temperature

Stations

Nearby Weather Stations

Station Location Temp. Windchill Dew Point Humidity Wind Precip. Elev Updated Type